Time;durP1;ratioP1;P1;durP2;ratioP2;P2;SDS_P1;SDS_P2;PMS_P1;PMS_P2;Temp;Humidity;BMP_temperature;BMP_pressure;BME280_temperature;BME280_humidity;BME280_pressure;Samples;Min_cycle;Max_cycle;Signal;HPM_P1;HPM_P2
2022/07/01 00:00:26;;;;;;;39.85;24.42;;;26.30;99.90;;;;;;5055387;28;20020;-67
2022/07/01 00:02:52;;;;;;;37.80;22.45;;;26.40;99.90;;;;;;5055242;28;20057;-66
2022/07/01 00:05:19;;;;;;;34.78;22.75;;;26.40;99.90;;;;;;5055119;28;20103;-67
2022/07/01 00:07:47;;;;;;;36.65;22.75;;;26.50;99.90;;;;;;5054835;28;20021;-67
2022/07/01 00:10:14;;;;;;;51.85;29.50;;;26.40;99.90;;;;;;5055025;28;20074;-67
2022/07/01 00:12:41;;;;;;;42.58;25.70;;;26.40;99.90;;;;;;5054923;28;20036;-66
2022/07/01 00:15:09;;;;;;;33.72;21.38;;;26.30;99.90;;;;;;5055075;28;20013;-66
2022/07/01 00:17:36;;;;;;;37.55;22.52;;;26.30;99.90;;;;;;5055218;28;20104;-66
2022/07/01 00:20:04;;;;;;;31.92;20.45;;;26.40;99.90;;;;;;5055035;28;20025;-66
2022/07/01 00:22:30;;;;;;;37.47;20.40;;;26.40;99.90;;;;;;5054999;28;20433;-67
2022/07/01 00:24:57;;;;;;;36.33;20.73;;;26.30;99.90;;;;;;5054873;28;20041;-66
2022/07/01 00:27:24;;;;;;;33.50;20.55;;;26.20;99.90;;;;;;5054675;28;20056;-66
2022/07/01 00:29:51;;;;;;;46.97;23.45;;;26.30;99.90;;;;;;5054780;28;20029;-67
2022/07/01 00:32:18;;;;;;;42.35;23.70;;;26.40;99.90;;;;;;5054814;28;20397;-67
2022/07/01 00:34:45;;;;;;;50.45;26.27;;;26.40;99.90;;;;;;5054302;28;20490;-67
2022/07/01 00:37:12;;;;;;;47.63;26.00;;;26.40;99.90;;;;;;5054623;28;20044;-67
2022/07/01 00:39:39;;;;;;;46.80;24.83;;;26.30;99.90;;;;;;5054513;28;20025;-67
2022/07/01 00:42:06;;;;;;;38.55;21.88;;;26.30;99.90;;;;;;5054531;28;20103;-66
2022/07/01 00:44:32;;;;;;;48.78;22.65;;;26.30;99.90;;;;;;5054563;28;20036;-66
2022/07/01 00:47:03;;;;;;;50.40;22.90;;;26.30;99.90;;;;;;5054282;28;20036;-67
2022/07/01 00:49:30;;;;;;;48.70;23.95;;;26.50;99.90;;;;;;5054152;28;20036;-66
2022/07/01 00:51:57;;;;;;;38.55;22.77;;;26.50;99.90;;;;;;5054285;28;20043;-67
2022/07/01 00:54:26;;;;;;;38.35;20.50;;;26.40;99.90;;;;;;5054047;28;20029;-66
2022/07/01 00:56:52;;;;;;;40.33;19.25;;;26.40;99.90;;;;;;5054078;28;20025;-66
2022/07/01 00:59:19;;;;;;;36.25;19.30;;;26.40;99.90;;;;;;5053800;28;20532;-66
2022/07/01 01:01:46;;;;;;;38.10;18.40;;;26.50;99.90;;;;;;5050667;28;20025;-67
2022/07/01 01:04:12;;;;;;;27.90;17.30;;;26.70;99.90;;;;;;5052860;28;20108;-67
2022/07/01 01:06:40;;;;;;;32.03;17.67;;;26.70;99.90;;;;;;5053180;28;20036;-66
2022/07/01 01:09:07;;;;;;;37.85;18.70;;;26.80;99.90;;;;;;5050059;28;20033;-66
2022/07/01 01:11:33;;;;;;;44.65;19.73;;;26.90;99.90;;;;;;5053141;28;20036;-66
2022/07/01 01:14:00;;;;;;;34.20;18.17;;;26.90;99.90;;;;;;5053563;28;20371;-67
2022/07/01 01:16:27;;;;;;;29.73;16.75;;;27.00;99.90;;;;;;5054114;28;20017;-67
2022/07/01 01:18:53;;;;;;;29.75;16.67;;;27.10;99.90;;;;;;5053985;28;20124;-66
2022/07/01 01:21:20;;;;;;;30.33;17.27;;;27.10;99.90;;;;;;5053626;28;20025;-67
2022/07/01 01:23:47;;;;;;;30.63;18.02;;;27.20;99.90;;;;;;5053578;28;20033;-67
2022/07/01 01:26:25;;;;;;;31.20;16.40;;;27.30;99.90;;;;;;5053721;28;20025;-67
2022/07/01 01:28:52;;;;;;;32.63;17.55;;;27.30;99.90;;;;;;5053531;28;20539;-67
2022/07/01 01:31:32;;;;;;;35.13;18.88;;;27.30;99.90;;;;;;5053516;28;20482;-66
2022/07/01 01:33:59;;;;;;;27.52;17.40;;;27.40;99.90;;;;;;5053417;28;20108;-66
2022/07/01 01:36:26;;;;;;;32.70;15.82;;;27.40;99.90;;;;;;5053419;28;20064;-66
2022/07/01 01:38:56;;;;;;;25.65;15.25;;;27.40;99.90;;;;;;5053553;28;20017;-66
2022/07/01 01:41:22;;;;;;;26.05;13.82;;;27.40;99.90;;;;;;5053386;28;20017;-66
2022/07/01 01:43:49;;;;;;;24.48;13.88;;;27.40;99.90;;;;;;5053396;28;20040;-66
2022/07/01 01:46:16;;;;;;;25.02;13.35;;;27.50;99.90;;;;;;5053342;28;20472;-67
2022/07/01 01:48:42;;;;;;;27.95;13.73;;;27.60;99.90;;;;;;5053284;28;20069;-67
2022/07/01 01:51:09;;;;;;;27.65;14.05;;;27.70;99.90;;;;;;5053243;28;20397;-67
2022/07/01 01:53:36;;;;;;;24.08;12.70;;;27.80;99.90;;;;;;5052850;28;20029;-66
2022/07/01 01:56:03;;;;;;;20.35;11.68;;;27.80;99.90;;;;;;5053315;28;20025;-66
2022/07/01 01:58:30;;;;;;;19.85;12.40;;;27.90;99.90;;;;;;5053230;28;20029;-66
2022/07/01 02:00:56;;;;;;;22.45;13.43;;;28.00;99.90;;;;;;5034415;28;20436;-66
2022/07/01 02:03:23;;;;;;;26.92;14.15;;;28.00;99.90;;;;;;5055636;28;20077;-66
2022/07/01 02:05:50;;;;;;;23.35;13.00;;;28.10;99.90;;;;;;5068720;28;20033;-66
2022/07/01 02:08:17;;;;;;;25.67;12.10;;;28.20;99.90;;;;;;5053091;28;20070;-66
2022/07/01 02:10:44;;;;;;;24.88;12.88;;;28.10;99.90;;;;;;5052987;28;20037;-66
2022/07/01 02:13:10;;;;;;;20.13;12.60;;;28.20;99.90;;;;;;5052983;28;20026;-67
2022/07/01 02:15:39;;;;;;;25.67;11.02;;;28.10;99.90;;;;;;5053109;28;20021;-66
2022/07/01 02:18:06;;;;;;;21.02;12.30;;;28.00;99.90;;;;;;5052915;28;20025;-67
2022/07/01 02:20:33;;;;;;;25.90;14.73;;;28.00;99.90;;;;;;5052908;28;20017;-67
2022/07/01 02:23:00;;;;;;;24.13;13.90;;;28.10;99.90;;;;;;5055772;28;20021;-67
2022/07/01 02:25:27;;;;;;;30.17;14.02;;;28.20;99.90;;;;;;5056922;28;20370;-67
2022/07/01 02:27:54;;;;;;;25.90;16.60;;;28.30;99.90;;;;;;5057146;28;20112;-67
2022/07/01 02:30:20;;;;;;;25.10;16.42;;;28.50;99.90;;;;;;5057182;28;20014;-66
2022/07/01 02:32:47;;;;;;;24.48;15.45;;;28.50;99.90;;;;;;5057047;28;20025;-67
2022/07/01 02:35:13;;;;;;;31.23;16.27;;;28.40;99.90;;;;;;5056650;28;20049;-67
2022/07/01 02:37:40;;;;;;;26.50;16.60;;;28.50;99.90;;;;;;5057023;28;20025;-67
2022/07/01 02:40:09;;;;;;;28.27;18.77;;;28.60;99.90;;;;;;5056816;28;20017;-66
2022/07/01 02:42:36;;;;;;;30.58;20.63;;;28.50;99.90;;;;;;5056806;28;20045;-66
2022/07/01 02:45:08;;;;;;;25.75;18.50;;;28.50;99.90;;;;;;5056877;28;20029;-67
2022/07/01 02:47:35;;;;;;;28.05;20.02;;;28.60;99.90;;;;;;5056735;28;20472;-67
2022/07/01 02:50:06;;;;;;;30.13;21.33;;;28.60;99.90;;;;;;5056721;28;20035;-67
2022/07/01 02:52:37;;;;;;;34.17;21.02;;;28.60;99.90;;;;;;5056844;28;20054;-67
2022/07/01 02:55:06;;;;;;;35.90;20.65;;;28.60;99.90;;;;;;5055004;28;20064;-67
2022/07/01 02:57:33;;;;;;;38.05;25.40;;;28.70;99.90;;;;;;5056460;28;20024;-65
2022/07/01 03:00:00;;;;;;;36.50;24.88;;;28.80;99.90;;;;;;5056674;28;20029;-67
2022/07/01 03:02:27;;;;;;;41.72;27.23;;;28.80;99.90;;;;;;5056641;28;20028;-64
2022/07/01 03:04:54;;;;;;;41.80;24.88;;;28.80;99.90;;;;;;5056604;28;20394;-66
2022/07/01 03:07:21;;;;;;;35.20;25.08;;;28.90;99.90;;;;;;5054610;28;20039;-68
2022/07/01 03:09:48;;;;;;;43.35;29.15;;;29.00;99.90;;;;;;5056661;28;20037;-71
2022/07/01 03:12:25;;;;;;;38.22;24.98;;;29.00;99.90;;;;;;5055910;28;20025;-70
2022/07/01 03:14:56;;;;;;;34.15;23.27;;;29.10;99.90;;;;;;5055011;28;20478;-71
2022/07/01 03:17:25;;;;;;;32.00;23.15;;;29.30;99.90;;;;;;5054820;28;20103;-74
2022/07/01 03:19:53;;;;;;;35.45;22.90;;;29.40;99.90;;;;;;5052490;28;20025;-70
2022/07/01 03:22:21;;;;;;;37.97;23.83;;;29.50;99.90;;;;;;5052775;28;20025;-72
2022/07/01 03:24:49;;;;;;;31.30;22.63;;;29.50;99.90;;;;;;5052444;28;20024;-66
2022/07/01 03:27:17;;;;;;;28.65;21.90;;;29.50;99.90;;;;;;5046055;28;20025;-72
2022/07/01 03:29:44;;;;;;;27.05;22.77;;;29.50;99.90;;;;;;5043282;28;20061;-73
2022/07/01 03:32:11;;;;;;;30.60;22.15;;;29.60;99.90;;;;;;5054398;28;20453;-76
2022/07/01 03:34:39;;;;;;;30.88;20.20;;;29.70;99.90;;;;;;5054906;28;20116;-76
2022/07/01 03:37:09;;;;;;;29.55;23.25;;;29.80;99.90;;;;;;5052265;28;20032;-71
2022/07/01 03:39:36;;;;;;;39.03;21.33;;;29.80;99.90;;;;;;5054017;28;20646;-74
2022/07/01 03:42:05;;;;;;;33.30;23.35;;;29.80;99.90;;;;;;5054110;28;20060;-73
2022/07/01 03:44:33;;;;;;;36.97;30.83;;;29.90;99.90;;;;;;5053311;28;20128;-74
2022/07/01 03:46:59;;;;;;;34.20;24.10;;;29.90;99.90;;;;;;5054500;28;20029;-74
2022/07/01 03:49:27;;;;;;;26.52;21.08;;;29.90;99.90;;;;;;5042669;28;20099;-73
2022/07/01 03:51:53;;;;;;;28.95;19.65;;;29.80;99.90;;;;;;5050698;28;20033;-76
2022/07/01 03:54:29;;;;;;;35.80;23.20;;;29.90;99.90;;;;;;5055020;28;20074;-76
2022/07/01 03:56:57;;;;;;;32.30;22.13;;;30.10;99.90;;;;;;5055029;28;20505;-73
2022/07/01 03:59:26;;;;;;;36.78;23.60;;;30.10;99.90;;;;;;5054223;28;20028;-71
2022/07/01 04:01:54;;;;;;;34.45;22.75;;;30.00;99.90;;;;;;4992680;28;20041;-73
2022/07/01 04:04:21;;;;;;;29.45;21.45;;;30.20;99.90;;;;;;4993742;28;20074;-72
2022/07/01 04:06:50;;;;;;;32.05;24.80;;;30.30;99.90;;;;;;4993945;28;20085;-73
2022/07/01 04:09:18;;;;;;;34.53;23.20;;;30.40;99.90;;;;;;4989130;28;20039;-72
2022/07/01 04:11:47;;;;;;;27.02;20.80;;;30.40;99.90;;;;;;4982201;28;20030;-73
2022/07/01 04:14:14;;;;;;;32.90;20.58;;;30.40;99.90;;;;;;4974405;28;20035;-74
2022/07/01 04:16:43;;;;;;;36.33;21.92;;;30.30;99.90;;;;;;4977232;28;20494;-74
2022/07/01 04:19:10;;;;;;;26.73;18.05;;;30.20;99.90;;;;;;4989789;28;20039;-72
2022/07/01 04:24:24;;;;;;;27.42;20.45;;;30.20;99.90;;;;;;4983035;28;20030;-73
2022/07/01 04:26:52;;;;;;;28.42;21.23;;;30.10;99.90;;;;;;4990605;28;20105;-74
2022/07/01 04:29:30;;;;;;;71.13;45.58;;;30.20;99.90;;;;;;4993490;28;20026;-75
2022/07/01 04:31:57;;;;;;;50.72;33.88;;;30.20;99.90;;;;;;4983621;28;20038;-73
2022/07/01 04:34:27;;;;;;;57.97;43.47;;;30.30;99.90;;;;;;4976701;28;20507;-73
2022/07/01 04:36:55;;;;;;;44.28;29.75;;;30.40;99.90;;;;;;4992613;28;20038;-73
2022/07/01 04:39:22;;;;;;;34.83;25.52;;;30.50;99.90;;;;;;5008113;28;20403;-72
2022/07/01 04:41:59;;;;;;;31.55;24.17;;;30.60;99.90;;;;;;5055246;28;20029;-72
2022/07/01 04:44:27;;;;;;;25.30;20.65;;;30.70;99.90;;;;;;5054120;28;20021;-71
2022/07/01 04:46:53;;;;;;;23.17;20.23;;;30.70;99.30;;;;;;5049043;28;20041;-71
2022/07/01 04:49:21;;;;;;;29.80;20.52;;;30.60;99.90;;;;;;5048955;28;20377;-72
2022/07/01 04:51:48;;;;;;;26.80;20.33;;;30.60;99.50;;;;;;5035929;28;20076;-71
2022/07/01 04:54:15;;;;;;;25.42;19.55;;;30.70;99.80;;;;;;5053200;28;20017;-73
2022/07/01 04:56:42;;;;;;;25.45;19.88;;;30.70;99.50;;;;;;5038821;28;20055;-73
2022/07/01 04:59:08;;;;;;;26.30;19.73;;;30.60;99.90;;;;;;5052166;28;20028;-72
2022/07/01 05:01:35;;;;;;;28.85;19.83;;;30.60;99.10;;;;;;5050007;28;20548;-72
2022/07/01 05:04:02;;;;;;;28.73;21.83;;;30.70;99.30;;;;;;5052686;28;20132;-72
2022/07/01 05:06:33;;;;;;;29.73;19.70;;;30.70;98.80;;;;;;5050843;28;20032;-73
2022/07/01 05:09:01;;;;;;;25.35;19.98;;;30.60;98.30;;;;;;5054453;28;20066;-72
2022/07/01 05:11:27;;;;;;;24.02;19.10;;;30.60;97.60;;;;;;5032318;28;20501;-71
2022/07/01 05:13:54;;;;;;;24.80;18.38;;;30.80;97.20;;;;;;5047469;28;20013;-70
2022/07/01 05:16:21;;;;;;;24.50;20.33;;;31.00;95.80;;;;;;5050605;28;20243;-69
2022/07/01 05:24:09;;;;;;;27.08;19.70;;;30.80;95.40;;;;;;5049757;28;20075;-69
2022/07/01 05:26:36;;;;;;;22.90;19.60;;;30.80;96.20;;;;;;5051332;28;20099;-70
2022/07/01 05:29:03;;;;;;;29.08;21.52;;;30.70;96.40;;;;;;5052829;28;20267;-69
2022/07/01 05:31:30;;;;;;;24.33;20.25;;;30.70;95.70;;;;;;5053546;28;20025;-69
2022/07/01 05:33:57;;;;;;;24.27;19.20;;;30.60;95.80;;;;;;5031671;28;20036;-70
2022/07/01 05:36:23;;;;;;;24.85;20.10;;;30.60;96.20;;;;;;5049178;28;20569;-69
2022/07/01 05:38:50;;;;;;;23.98;19.60;;;30.70;96.60;;;;;;5052795;28;20032;-69
2022/07/01 05:41:17;;;;;;;24.23;20.70;;;30.90;95.30;;;;;;5052168;28;20060;-70
2022/07/01 05:43:43;;;;;;;31.42;20.52;;;31.10;95.10;;;;;;5029913;28;20093;-70
2022/07/01 05:46:10;;;;;;;27.15;20.23;;;31.20;95.00;;;;;;5048505;28;20486;-71
2022/07/01 05:48:37;;;;;;;24.00;19.88;;;31.40;94.70;;;;;;5051204;28;20040;-68
2022/07/01 05:51:04;;;;;;;27.67;20.23;;;31.40;94.70;;;;;;5048782;28;20028;-70
2022/07/01 05:53:31;;;;;;;23.13;18.27;;;31.50;94.60;;;;;;5052601;28;20085;-68
2022/07/01 05:55:57;;;;;;;23.88;20.10;;;31.60;92.70;;;;;;5051815;28;20025;-70
2022/07/01 05:58:24;;;;;;;24.83;20.00;;;31.40;93.20;;;;;;5047752;28;20013;-67
2022/07/01 06:00:52;;;;;;;27.27;22.02;;;31.30;93.90;;;;;;5050394;28;20462;-69
2022/07/01 06:03:19;;;;;;;26.85;20.80;;;31.20;93.30;;;;;;5035160;28;20036;-67
2022/07/01 06:05:45;;;;;;;24.50;20.77;;;31.20;93.40;;;;;;5052195;28;20031;-68
2022/07/01 06:08:12;;;;;;;30.27;22.33;;;31.20;93.70;;;;;;5052657;28;20029;-65
2022/07/01 06:10:39;;;;;;;28.60;23.27;;;31.20;94.20;;;;;;5052315;28;20545;-68
2022/07/01 06:13:08;;;;;;;28.42;23.65;;;31.20;92.80;;;;;;5047260;28;20048;-68
2022/07/01 06:15:40;;;;;;;26.27;22.88;;;31.20;92.70;;;;;;5046229;28;20021;-73
2022/07/01 06:18:09;;;;;;;25.40;22.42;;;31.20;93.40;;;;;;5042065;28;20033;-69
2022/07/01 06:20:35;;;;;;;31.85;25.42;;;31.10;93.30;;;;;;5039786;28;20087;-65
2022/07/01 06:23:02;;;;;;;26.10;23.05;;;31.20;94.00;;;;;;5046738;28;20032;-65
2022/07/01 06:25:29;;;;;;;29.50;25.60;;;31.20;93.50;;;;;;5052334;28;20021;-65
2022/07/01 06:27:55;;;;;;;30.10;27.00;;;31.40;92.60;;;;;;5038808;28;20021;-64
2022/07/01 06:30:22;;;;;;;34.30;27.52;;;31.50;92.20;;;;;;5031917;28;20017;-65
2022/07/01 06:32:49;;;;;;;29.95;26.75;;;31.70;91.60;;;;;;5039389;28;20029;-65
2022/07/01 06:35:15;;;;;;;31.67;26.45;;;31.80;92.50;;;;;;5052854;28;20049;-66
2022/07/01 06:37:42;;;;;;;31.23;27.92;;;31.80;91.50;;;;;;5051158;28;20025;-65
2022/07/01 06:40:09;;;;;;;36.83;26.85;;;31.80;92.00;;;;;;5038902;28;20021;-65
2022/07/01 06:42:36;;;;;;;37.10;27.90;;;31.90;90.40;;;;;;5043732;28;20052;-65
2022/07/01 06:45:03;;;;;;;30.70;27.40;;;31.80;90.00;;;;;;5033859;28;20494;-65
2022/07/01 06:47:29;;;;;;;31.42;26.92;;;31.80;91.10;;;;;;5032329;28;20494;-65
2022/07/01 06:49:56;;;;;;;30.80;25.75;;;31.70;91.40;;;;;;5050976;28;20056;-66
2022/07/01 06:52:23;;;;;;;33.03;26.90;;;31.60;91.50;;;;;;5047013;28;20109;-65
2022/07/01 06:54:50;;;;;;;32.10;27.55;;;31.50;92.20;;;;;;5042917;28;20082;-65
2022/07/01 06:57:16;;;;;;;30.02;26.75;;;31.70;92.80;;;;;;5051114;28;20044;-65
2022/07/01 06:59:52;;;;;;;31.98;25.50;;;31.90;91.80;;;;;;5045009;28;20044;-66
2022/07/01 07:02:20;;;;;;;35.50;27.20;;;32.00;91.10;;;;;;5048074;28;20021;-66
2022/07/01 07:04:47;;;;;;;35.47;29.80;;;31.80;91.80;;;;;;5052732;28;20017;-65
2022/07/01 07:07:13;;;;;;;47.08;30.33;;;31.70;91.90;;;;;;5052154;28;20029;-66
2022/07/01 07:09:40;;;;;;;31.52;26.42;;;31.70;91.80;;;;;;5030219;28;20031;-65
2022/07/01 07:12:07;;;;;;;29.40;26.27;;;31.70;91.60;;;;;;5035123;28;20056;-65
2022/07/01 07:14:34;;;;;;;31.02;27.73;;;31.60;91.20;;;;;;5054752;28;20029;-65
2022/07/01 07:17:01;;;;;;;36.10;30.65;;;31.80;91.60;;;;;;5055223;28;20024;-66
2022/07/01 07:19:28;;;;;;;33.55;29.80;;;32.00;91.20;;;;;;5048976;28;20054;-66
2022/07/01 07:21:56;;;;;;;34.22;28.25;;;32.00;90.10;;;;;;5050070;28;20083;-65
2022/07/01 07:24:25;;;;;;;33.42;29.98;;;32.00;88.40;;;;;;5054879;28;20025;-66
2022/07/01 07:26:52;;;;;;;33.17;29.67;;;32.00;89.80;;;;;;5037068;28;20032;-66
2022/07/01 07:29:19;;;;;;;32.65;29.00;;;31.90;90.70;;;;;;5035591;28;20095;-65
2022/07/01 07:31:45;;;;;;;32.67;29.25;;;31.90;90.50;;;;;;5055369;28;20025;-66
2022/07/01 07:34:12;;;;;;;36.15;29.52;;;31.90;89.20;;;;;;5052443;28;20168;-65
2022/07/01 07:36:39;;;;;;;31.20;27.55;;;32.00;89.20;;;;;;5030143;28;20406;-66
2022/07/01 07:39:08;;;;;;;29.67;25.13;;;32.00;90.00;;;;;;5053174;28;20032;-66
2022/07/01 07:41:37;;;;;;;36.17;27.65;;;32.00;90.00;;;;;;5052351;28;20051;-66
2022/07/01 07:44:04;;;;;;;29.90;26.80;;;32.10;89.10;;;;;;5034704;28;20036;-65
2022/07/01 07:46:31;;;;;;;32.58;27.60;;;32.20;88.40;;;;;;5052926;28;20048;-66
2022/07/01 07:48:57;;;;;;;35.90;29.73;;;32.10;87.10;;;;;;5047210;28;20037;-66
2022/07/01 07:51:24;;;;;;;31.23;27.85;;;32.10;89.70;;;;;;5049166;28;20025;-66
2022/07/01 07:53:51;;;;;;;35.47;28.08;;;32.20;90.50;;;;;;5048565;28;20107;-66
2022/07/01 07:56:18;;;;;;;35.33;27.33;;;32.30;90.00;;;;;;5036591;28;20021;-66
2022/07/01 07:58:44;;;;;;;34.67;26.70;;;32.30;90.00;;;;;;5023425;28;20382;-67
2022/07/01 08:01:11;;;;;;;29.95;26.73;;;32.40;88.40;;;;;;5054279;28;20017;-66
2022/07/01 08:03:38;;;;;;;31.70;25.88;;;32.40;90.20;;;;;;5052112;28;20056;-65
2022/07/01 08:06:05;;;;;;;33.42;24.63;;;32.30;90.20;;;;;;5054691;28;20133;-65
2022/07/01 08:08:32;;;;;;;30.40;27.17;;;32.30;89.50;;;;;;5044915;28;20020;-65
2022/07/01 08:10:59;;;;;;;33.85;27.40;;;32.30;90.00;;;;;;5047983;28;20025;-66
2022/07/01 08:13:27;;;;;;;28.95;25.50;;;32.30;90.00;;;;;;5047448;28;20021;-65
2022/07/01 08:15:54;;;;;;;34.40;30.73;;;32.20;90.20;;;;;;5036483;28;20116;-66
2022/07/01 08:18:21;;;;;;;31.85;26.70;;;32.00;89.90;;;;;;5038710;28;20366;-66
2022/07/01 08:20:52;;;;;;;33.55;24.60;;;32.20;89.50;;;;;;5049643;28;20060;-67
2022/07/01 08:23:21;;;;;;;32.67;27.92;;;32.30;86.70;;;;;;5050377;28;20075;-66
2022/07/01 08:25:49;;;;;;;28.60;25.23;;;32.40;85.50;;;;;;5051085;28;20025;-66
2022/07/01 08:28:17;;;;;;;27.88;24.33;;;32.40;86.30;;;;;;5046067;28;20536;-67
2022/07/01 08:30:44;;;;;;;29.98;22.35;;;32.40;85.40;;;;;;5050786;28;20116;-67
2022/07/01 08:33:11;;;;;;;24.50;21.88;;;32.40;85.10;;;;;;5048805;28;20047;-68
2022/07/01 08:35:38;;;;;;;27.50;23.20;;;32.50;84.80;;;;;;5052803;28;20098;-65
2022/07/01 08:38:05;;;;;;;28.27;23.08;;;32.50;86.50;;;;;;5045000;28;20409;-67
2022/07/01 08:40:32;;;;;;;30.88;22.88;;;32.60;87.20;;;;;;5049021;28;20029;-67
2022/07/01 08:43:03;;;;;;;29.00;22.30;;;32.50;86.80;;;;;;5044340;28;20444;-67
2022/07/01 08:45:31;;;;;;;31.25;23.85;;;32.40;85.80;;;;;;5043777;28;20104;-67
2022/07/01 08:48:03;;;;;;;28.10;22.70;;;32.10;88.20;;;;;;5054275;28;20043;-66
2022/07/01 08:50:31;;;;;;;27.27;21.40;;;32.00;87.10;;;;;;5050746;28;20025;-67
2022/07/01 08:52:58;;;;;;;33.67;22.02;;;32.00;87.40;;;;;;5046817;28;20116;-67
2022/07/01 08:55:28;;;;;;;36.25;25.38;;;32.00;86.90;;;;;;5052255;28;20032;-66
2022/07/01 08:57:55;;;;;;;29.60;23.08;;;32.20;86.90;;;;;;5053832;28;20055;-66
2022/07/01 09:00:22;;;;;;;28.90;24.30;;;32.30;86.50;;;;;;5051411;28;20294;-66
2022/07/01 09:02:54;;;;;;;26.98;22.85;;;32.30;87.10;;;;;;5047222;28;20509;-67
2022/07/01 09:05:22;;;;;;;26.92;22.02;;;32.20;86.60;;;;;;5051919;28;20029;-66
2022/07/01 09:07:54;;;;;;;33.08;23.38;;;32.20;87.20;;;;;;5054413;28;20035;-68
2022/07/01 09:10:21;;;;;;;30.65;22.95;;;32.20;86.70;;;;;;5053507;28;20052;-68
2022/07/01 09:12:48;;;;;;;29.77;22.85;;;32.30;87.00;;;;;;5049617;28;20272;-68
2022/07/01 09:15:27;;;;;;;38.47;28.17;;;32.30;88.00;;;;;;5044717;28;20105;-69
2022/07/01 09:18:03;;;;;;;32.85;25.27;;;32.30;85.80;;;;;;5051447;28;20064;-68
2022/07/01 09:20:34;;;;;;;29.23;23.20;;;32.30;87.50;;;;;;5033313;28;20020;-67
2022/07/01 09:23:05;;;;;;;29.45;22.63;;;32.20;86.00;;;;;;5048699;28;20029;-67
2022/07/01 09:25:37;;;;;;;29.05;23.58;;;32.10;86.00;;;;;;5045096;28;20099;-64
2022/07/01 09:28:08;;;;;;;37.00;26.08;;;32.10;87.40;;;;;;5044247;28;20072;-65
2022/07/01 09:30:35;;;;;;;33.20;22.77;;;32.00;85.90;;;;;;5051612;28;20033;-64
2022/07/01 09:33:07;;;;;;;28.42;23.23;;;31.90;86.70;;;;;;5041461;28;20028;-65
2022/07/01 09:35:35;;;;;;;33.25;22.95;;;31.80;86.40;;;;;;5050810;28;20056;-69
2022/07/01 09:38:05;;;;;;;30.05;22.58;;;31.80;87.60;;;;;;5049371;28;20104;-64
2022/07/01 09:40:53;;;;;;;26.92;22.73;;;31.70;86.60;;;;;;5052343;28;20112;-66
2022/07/01 09:43:33;;;;;;;32.50;23.80;;;31.80;88.20;;;;;;5044821;28;20026;-64
2022/07/01 09:45:59;;;;;;;34.15;24.85;;;31.90;88.00;;;;;;5052568;28;20413;-65
2022/07/01 09:48:43;;;;;;;40.83;23.20;;;31.90;87.10;;;;;;5053291;28;20021;-63
2022/07/01 09:51:12;;;;;;;34.45;24.80;;;31.90;87.20;;;;;;5041388;28;20021;-65
2022/07/01 09:53:39;;;;;;;37.45;26.33;;;31.80;86.60;;;;;;5040288;28;20029;-65
2022/07/01 09:56:06;;;;;;;32.83;23.95;;;31.70;86.50;;;;;;5052438;28;20029;-65
2022/07/01 09:58:33;;;;;;;32.70;23.65;;;31.70;87.20;;;;;;5052645;28;20092;-65
2022/07/01 10:01:00;;;;;;;38.47;25.27;;;31.60;87.70;;;;;;5051980;28;20029;-64
2022/07/01 10:03:28;;;;;;;30.40;20.50;;;31.60;89.00;;;;;;5041797;28;20040;-64
2022/07/01 10:06:10;;;;;;;41.38;23.98;;;31.50;86.50;;;;;;5052820;28;20040;-64
2022/07/01 10:08:57;;;;;;;34.33;19.88;;;31.40;86.40;;;;;;5052838;28;20631;-64
2022/07/01 10:12:04;;;;;;;22.45;17.00;;;31.30;86.60;;;;;;5052621;28;20478;-67
2022/07/01 10:14:31;;;;;;;35.03;22.23;;;31.30;87.50;;;;;;5003470;28;20048;-64
2022/07/01 10:16:58;;;;;;;29.20;23.15;;;31.20;86.80;;;;;;4989205;28;20034;-64
2022/07/01 10:19:29;;;;;;;19.33;14.23;;;31.20;87.10;;;;;;4989610;28;20118;-63
2022/07/01 10:22:17;;;;;;;18.57;14.03;;;31.20;86.10;;;;;;4990172;28;20393;-64
2022/07/01 10:24:46;;;;;;;24.25;14.93;;;31.20;86.10;;;;;;4920495;29;20044;-63
2022/07/01 10:27:24;;;;;;;39.47;23.83;;;31.10;86.10;;;;;;4913183;29;20053;-64
2022/07/01 10:30:13;;;;;;;32.67;19.85;;;31.00;88.20;;;;;;4926247;29;20472;-63
2022/07/01 10:32:49;;;;;;;38.08;21.15;;;31.00;86.90;;;;;;4923945;29;20036;-65
2022/07/01 10:35:16;;;;;;;28.45;20.88;;;31.00;86.50;;;;;;4929135;29;20044;-65
2022/07/01 10:38:03;;;;;;;29.30;21.88;;;31.00;86.80;;;;;;4920157;29;20360;-65
2022/07/01 10:40:46;;;;;;;33.15;23.58;;;30.90;86.40;;;;;;4927247;29;20038;-64
2022/07/01 10:43:17;;;;;;;35.95;21.80;;;30.80;87.30;;;;;;4937418;29;20049;-63
2022/07/01 10:45:48;;;;;;;34.78;23.02;;;30.80;87.80;;;;;;4918896;29;20091;-64
2022/07/01 10:48:24;;;;;;;34.77;23.57;;;30.80;88.30;;;;;;4930651;29;20090;-65
2022/07/01 10:50:52;;;;;;;37.10;25.15;;;30.70;88.80;;;;;;4934957;28;20044;-66
2022/07/01 10:53:19;;;;;;;40.88;25.73;;;30.70;89.00;;;;;;4960644;28;20488;-68
2022/07/01 10:55:48;;;;;;;50.80;28.70;;;30.70;89.20;;;;;;4963299;28;20078;-66
2022/07/01 10:58:18;;;;;;;45.95;30.25;;;30.70;88.40;;;;;;4965036;28;20031;-66
2022/07/01 11:00:49;;;;;;;44.65;29.17;;;30.70;88.80;;;;;;4970000;28;20024;-65
2022/07/01 11:03:21;;;;;;;51.08;30.75;;;30.60;89.30;;;;;;5047647;28;20033;-64
2022/07/01 11:05:51;;;;;;;57.42;32.88;;;30.60;89.50;;;;;;5040349;28;20020;-63
2022/07/01 11:08:18;;;;;;;48.15;30.27;;;30.60;90.00;;;;;;5055957;28;20021;-65
2022/07/01 11:10:49;;;;;;;48.08;29.83;;;30.60;89.90;;;;;;5055461;28;20036;-66
2022/07/01 11:13:16;;;;;;;44.17;27.83;;;30.50;89.90;;;;;;5038035;28;20367;-66
2022/07/01 11:15:47;;;;;;;47.95;28.40;;;30.50;90.00;;;;;;5045068;28;20009;-65
2022/07/01 11:18:16;;;;;;;43.13;27.95;;;30.50;90.20;;;;;;5056092;28;20482;-68
2022/07/01 11:20:43;;;;;;;39.80;22.75;;;30.40;90.40;;;;;;5055271;28;20021;-67
2022/07/01 11:23:10;;;;;;;28.83;18.95;;;30.40;90.30;;;;;;5048842;28;20023;-69
2022/07/01 11:25:36;;;;;;;31.40;20.10;;;30.30;90.40;;;;;;5053810;28;20084;-65
2022/07/01 11:28:04;;;;;;;27.75;17.33;;;30.30;90.40;;;;;;5048094;28;20033;-64
2022/07/01 11:30:31;;;;;;;22.92;17.20;;;30.30;90.60;;;;;;5055383;28;20021;-64
2022/07/01 11:32:59;;;;;;;34.97;20.38;;;30.20;90.50;;;;;;5054227;28;20424;-65
2022/07/01 11:41:17;;;;;;;30.98;18.95;;;30.10;90.90;;;;;;5052609;28;20029;-64
2022/07/01 11:43:44;;;;;;;33.67;19.52;;;30.10;91.00;;;;;;5055689;28;20504;-65
2022/07/01 11:46:10;;;;;;;28.15;18.33;;;30.00;91.20;;;;;;5055323;28;20108;-64
2022/07/01 11:48:38;;;;;;;27.40;19.13;;;30.00;91.10;;;;;;5055398;28;20025;-64
2022/07/01 11:51:09;;;;;;;30.00;19.15;;;30.00;91.30;;;;;;5055230;28;20381;-65
2022/07/01 11:53:36;;;;;;;37.17;18.88;;;29.90;91.40;;;;;;5055111;28;20559;-65
2022/07/01 11:56:04;;;;;;;41.70;22.00;;;29.90;92.20;;;;;;5038936;28;20083;-64
2022/07/01 11:58:52;;;;;;;36.70;22.27;;;29.90;91.70;;;;;;5035279;28;20028;-65
2022/07/01 12:01:22;;;;;;;33.67;20.95;;;30.00;92.00;;;;;;5042766;28;20082;-63
2022/07/01 12:03:48;;;;;;;43.20;22.17;;;29.90;91.60;;;;;;5055200;28;20029;-64
2022/07/01 12:06:17;;;;;;;43.78;24.73;;;29.90;92.00;;;;;;5054829;28;20497;-65
2022/07/01 12:08:46;;;;;;;39.35;24.92;;;29.90;92.10;;;;;;5054801;28;20041;-65
2022/07/01 12:11:12;;;;;;;40.58;22.02;;;29.90;92.30;;;;;;5054668;28;20063;-65
2022/07/01 12:13:39;;;;;;;39.22;21.63;;;29.80;92.20;;;;;;5054857;28;20021;-64
2022/07/01 12:16:08;;;;;;;40.75;22.45;;;29.80;92.40;;;;;;5039303;28;20025;-65
2022/07/01 12:18:35;;;;;;;33.25;19.48;;;29.70;92.60;;;;;;5034102;28;20475;-65
2022/07/01 12:21:02;;;;;;;31.58;19.98;;;29.70;92.50;;;;;;5033147;28;20029;-65
2022/07/01 12:23:28;;;;;;;39.00;21.80;;;29.70;92.70;;;;;;5035086;28;20017;-63
2022/07/01 12:25:55;;;;;;;29.77;19.92;;;29.60;92.40;;;;;;5034335;28;20021;-65
2022/07/01 12:28:37;;;;;;;31.42;19.42;;;29.60;92.50;;;;;;5034819;28;20048;-65
2022/07/01 12:31:13;;;;;;;27.52;18.60;;;29.50;92.30;;;;;;5033978;28;20021;-67
2022/07/01 12:33:50;;;;;;;36.00;21.85;;;29.50;92.80;;;;;;5032730;28;20033;-65
2022/07/01 12:36:16;;;;;;;33.92;20.15;;;29.40;92.70;;;;;;5048691;28;20553;-65
2022/07/01 12:38:43;;;;;;;29.05;18.05;;;29.50;93.00;;;;;;5052646;28;20028;-62
2022/07/01 12:41:33;;;;;;;29.63;18.13;;;29.40;92.80;;;;;;5051815;28;20024;-64
2022/07/01 12:44:20;;;;;;;29.20;17.75;;;29.40;92.90;;;;;;5052670;28;20033;-64
2022/07/01 12:46:47;;;;;;;29.50;16.75;;;29.40;92.90;;;;;;4991451;28;20463;-64
2022/07/01 12:49:24;;;;;;;28.52;17.25;;;29.30;93.00;;;;;;4992781;28;20038;-65